MOL Modern — V7VS6 — position and weather

sailwx.info

Track history (hours):
 
Tides and Currents Weather Stations Pressure Air Temp Water Temp Dewpoint Dewpoint Depression Visibility Wind Speed Wind Dir Waves Ship Positions

MOL Modern

Last reported at 2018-Jun-23 10:49 UTC. Time now 2018-Jun-23 11:51 UTC.
Position N 32°44' W 079°50'.

Length 302 m; draft 10.7 m.

Type: Ship (hazmat cat A). MMSI: 538004203.

Date/timePositionNaut miles runAvg speedWind from/ knotsBaromVisibWave heightAir tempDewpointWater temp
2018-Jun-23 10:49N 32°44' W 079°50'411.9
2018-Jun-23 10:30N 32°46' W 079°54'4 7.9
2018-Jun-23 10:00N 32°50' W 079°56'3 6.2
2018-Jun-23 09:27N 32°53' W 079°58'1 2.7
2018-Jun-23 08:59N 32°54' W 079°58'0 0.0
2018-Jun-23 08:29N 32°54' W 079°58'0 0.0
2018-Jun-23 07:59N 32°54' W 079°58'0 0.0
2018-Jun-22 21:23N 32°54' W 079°58'0 0.0
2018-Jun-22 18:41N 32°54' W 079°58'0 0.0
2018-Jun-22 17:38N 32°54' W 079°58'0 0.0
2018-Jun-22 16:41N 32°54' W 079°58'0 0.0
2018-Jun-22 16:23N 32°54' W 079°58'0 0.0
2018-Jun-22 15:57N 32°54' W 079°58'0 1.0
2018-Jun-22 15:30N 32°54' W 079°57'2 4.7
2018-Jun-22 15:00N 32°52' W 079°58'4 7.1
2018-Jun-22 14:30N 32°49' W 079°55'4 8.6
2018-Jun-22 14:00N 32°46' W 079°52'510.0
2018-Jun-22 13:30N 32°43' W 079°47'1710.6
2018-Jun-22 11:51N 32°28' W 079°36'616.5
2018-Jun-22 11:30N 32°23' W 079°39'1019.8
2018-Jun-22 11:00N 32°14' W 079°45'1019.9
2018-Jun-22 10:30N 32°05' W 079°50'1020.1
2018-Jun-22 10:00N 31°57' W 079°56'1020.1
2018-Jun-22 09:30N 31°48' W 080°01'1120.2
2018-Jun-22 08:58N 31°38' W 080°07'920.2
2018-Jun-22 08:30N 31°30' W 080°13'1020.1
2018-Jun-22 08:00N 31°21' W 080°18'1120.3
2018-Jun-22 07:28N 31°11' W 080°24'1020.5
2018-Jun-22 06:59N 31°03' W 080°30'44 1.5
2018-Jun-21 02:36N 31°46' W 080°25'517.2
2018-Jun-21 02:17N 31°51' W 080°28'818.1
2018-Jun-21 01:52N 31°55' W 080°36'615.6
2018-Jun-21 01:30N 31°57' W 080°42'612.4
2018-Jun-21 00:59N 32°01' W 080°48'612.5
2018-Jun-21 00:30N 32°02' W 080°55'611.2
2018-Jun-21 00:00N 32°06' W 081°00'4 7.5
2018-Jun-20 23:29N 32°05' W 081°04'3 6.7
2018-Jun-20 23:00N 32°07' W 081°07'1 1.7
2018-Jun-20 22:29N 32°07' W 081°08'0 0.0
2018-Jun-20 21:47N 32°07' W 081°08'0 0.0
2018-Jun-20 21:29N 32°07' W 081°08'0 0.0
2018-Jun-20 20:59N 32°07' W 081°08'0 0.0
2018-Jun-20 20:29N 32°07' W 081°08'0 0.0
2018-Jun-20 19:59N 32°07' W 081°08'0 0.0
2018-Jun-20 19:26N 32°07' W 081°08'0 0.0
2018-Jun-20 18:59N 32°07' W 081°08'0 0.0
2018-Jun-20 18:26N 32°07' W 081°08'0 0.0
2018-Jun-20 17:53N 32°07' W 081°08'0 0.0
2018-Jun-20 17:23N 32°07' W 081°08'0 0.0
2018-Jun-20 16:59N 32°07' W 081°08'0 0.0
2018-Jun-20 16:29N 32°07' W 081°08'0 0.0
2018-Jun-20 15:53N 32°07' W 081°08'0 0.0
2018-Jun-20 15:29N 32°07' W 081°08'0 0.0
2018-Jun-20 14:56N 32°07' W 081°08'0 0.0
2018-Jun-20 14:29N 32°07' W 081°08'0 0.0
2018-Jun-20 13:47N 32°07' W 081°08'0 0.0
2018-Jun-20 13:26N 32°07' W 081°08'0 0.0
2018-Jun-20 12:59N 32°07' W 081°08'0 0.0
2018-Jun-20 12:29N 32°07' W 081°08'0 0.0
2018-Jun-20 09:17N 32°07' W 081°08'0 0.0
2018-Jun-20 08:47N 32°07' W 081°08'0 0.0
2018-Jun-20 08:29N 32°07' W 081°08'0 0.0
2018-Jun-20 07:53N 32°07' W 081°08'0 0.0
2018-Jun-20 05:44N 32°07' W 081°08'0 0.1
2018-Jun-20 05:29N 32°07' W 081°08'0 0.0
2018-Jun-20 04:50N 32°07' W 081°08'0 0.0
2018-Jun-20 03:53N 32°07' W 081°08'0 0.0
2018-Jun-20 03:23N 32°07' W 081°08'0 0.0
2018-Jun-20 02:59N 32°07' W 081°08'0 0.0
2018-Jun-20 02:29N 32°07' W 081°08'0 0.0
2018-Jun-19 19:11N 32°07' W 081°08'0 0.3
2018-Jun-19 19:00N 32°07' W 081°08'1 1.1
2018-Jun-19 18:30N 32°08' W 081°08'3 5.2
2018-Jun-19 17:59N 32°06' W 081°06'3 5.5
2018-Jun-19 17:30N 32°05' W 081°03'4 6.9
2018-Jun-19 16:59N 32°05' W 080°59'510.6
2018-Jun-19 16:30N 32°02' W 080°54'612.1
2018-Jun-19 16:00N 32°00' W 080°48'714.0
2018-Jun-19 15:30N 31°57' W 080°40'713.3
2018-Jun-19 14:59N 31°55' W 080°32'5 0.3
2018-Jun-19 01:16N 31°54' W 080°27'1 3.2
2018-Jun-19 01:00N 31°54' W 080°26'813.5
2018-Jun-19 00:26N 31°49' W 080°20'815.8
2018-Jun-18 23:54N 31°41' W 080°15'1416.0
2018-Jun-18 23:03N 31°29' W 080°09'416.0
2018-Jun-18 22:49N 31°25' W 080°08'  
2018-Jun-15 08:29N 09°36' W 079°47'917.9
2018-Jun-15 07:59N 09°29' W 079°51'612.9
2018-Jun-15 07:30N 09°23' W 079°54'1 2.6
2018-Jun-15 07:00N 09°22' W 079°53'0 0.0
2018-Jun-15 06:23N 09°22' W 079°53'0 0.0
2018-Jun-15 05:59N 09°22' W 079°53'0 0.0
2018-Jun-15 05:29N 09°22' W 079°53'0 0.0
2018-Jun-15 04:59N 09°22' W 079°53'0 0.0
2018-Jun-15 04:29N 09°22' W 079°53'0 0.0
2018-Jun-15 03:59N 09°22' W 079°53'0 0.0
2018-Jun-15 03:29N 09°22' W 079°53'0 0.0
2018-Jun-15 02:59N 09°22' W 079°53'0 0.0
2018-Jun-15 02:29N 09°22' W 079°53'0 0.0
2018-Jun-15 01:59N 09°22' W 079°53'0 0.1
2018-Jun-15 01:29N 09°22' W 079°53'0 0.1
2018-Jun-15 00:59N 09°22' W 079°53'0 0.0
2018-Jun-15 00:29N 09°22' W 079°53'0 0.0
2018-Jun-14 23:59N 09°22' W 079°53'0 0.0
2018-Jun-14 23:29N 09°22' W 079°53'0 0.0
2018-Jun-14 22:59N 09°22' W 079°53'0 0.0
2018-Jun-14 22:29N 09°22' W 079°53'0 0.0
2018-Jun-14 21:59N 09°22' W 079°53'0 0.0
2018-Jun-14 21:29N 09°22' W 079°53'0 0.1
2018-Jun-14 21:00N 09°22' W 079°53'1 1.6
2018-Jun-14 20:30N 09°22' W 079°54'2 4.0
2018-Jun-14 20:00N 09°24' W 079°55'4 8.2
2018-Jun-14 19:30N 09°20' W 079°55'3 5.7
2018-Jun-14 19:00N 09°17' W 079°55'1 1.2
2018-Jun-14 18:30N 09°16' W 079°55'0 0.5
2018-Jun-14 18:00N 09°16' W 079°55'0 0.4
2018-Jun-14 17:27N 09°16' W 079°55'0 0.1
2018-Jun-14 17:00N 09°16' W 079°55'1 1.1
2018-Jun-14 16:30N 09°15' W 079°55'1 2.7
2018-Jun-14 16:00N 09°14' W 079°55'  
Track history (hours):
 
Tides and Currents Weather Stations Pressure Air Temp Water Temp Dewpoint Dewpoint Depression Visibility Wind Speed Wind Dir Waves Ship Positions

MOL Modern

Last reported at 2018-Jun-23 10:49 UTC. Time now 2018-Jun-23 11:51 UTC.
Position N 32°44' W 079°50'.

Length 302 m; draft 10.7 m.

Type: Ship (hazmat cat A). MMSI: 538004203.

Date/timePositionNaut miles runAvg speedWind from/ knotsBaromVisibWave heightAir tempDewpointWater temp
2018-Jun-23 10:49N 32°44' W 079°50'411.9
2018-Jun-23 10:30N 32°46' W 079°54'4 7.9
2018-Jun-23 10:00N 32°50' W 079°56'3 6.2
2018-Jun-23 09:27N 32°53' W 079°58'1 2.7
2018-Jun-23 08:59N 32°54' W 079°58'0 0.0
2018-Jun-23 08:29N 32°54' W 079°58'0 0.0
2018-Jun-23 07:59N 32°54' W 079°58'0 0.0
2018-Jun-22 21:23N 32°54' W 079°58'0 0.0
2018-Jun-22 18:41N 32°54' W 079°58'0 0.0
2018-Jun-22 17:38N 32°54' W 079°58'0 0.0
2018-Jun-22 16:41N 32°54' W 079°58'0 0.0
2018-Jun-22 16:23N 32°54' W 079°58'0 0.0
2018-Jun-22 15:57N 32°54' W 079°58'0 1.0
2018-Jun-22 15:30N 32°54' W 079°57'2 4.7
2018-Jun-22 15:00N 32°52' W 079°58'4 7.1
2018-Jun-22 14:30N 32°49' W 079°55'4 8.6
2018-Jun-22 14:00N 32°46' W 079°52'510.0
2018-Jun-22 13:30N 32°43' W 079°47'1710.6
2018-Jun-22 11:51N 32°28' W 079°36'616.5
2018-Jun-22 11:30N 32°23' W 079°39'1019.8
2018-Jun-22 11:00N 32°14' W 079°45'1019.9
2018-Jun-22 10:30N 32°05' W 079°50'1020.1
2018-Jun-22 10:00N 31°57' W 079°56'1020.1
2018-Jun-22 09:30N 31°48' W 080°01'1120.2
2018-Jun-22 08:58N 31°38' W 080°07'920.2
2018-Jun-22 08:30N 31°30' W 080°13'1020.1
2018-Jun-22 08:00N 31°21' W 080°18'1120.3
2018-Jun-22 07:28N 31°11' W 080°24'1020.5
2018-Jun-22 06:59N 31°03' W 080°30'44 1.5
2018-Jun-21 02:36N 31°46' W 080°25'517.2
2018-Jun-21 02:17N 31°51' W 080°28'818.1
2018-Jun-21 01:52N 31°55' W 080°36'615.6
2018-Jun-21 01:30N 31°57' W 080°42'612.4
2018-Jun-21 00:59N 32°01' W 080°48'612.5
2018-Jun-21 00:30N 32°02' W 080°55'611.2
2018-Jun-21 00:00N 32°06' W 081°00'4 7.5
2018-Jun-20 23:29N 32°05' W 081°04'3 6.7
2018-Jun-20 23:00N 32°07' W 081°07'1 1.7
2018-Jun-20 22:29N 32°07' W 081°08'0 0.0
2018-Jun-20 21:47N 32°07' W 081°08'0 0.0
2018-Jun-20 21:29N 32°07' W 081°08'0 0.0
2018-Jun-20 20:59N 32°07' W 081°08'0 0.0
2018-Jun-20 20:29N 32°07' W 081°08'0 0.0
2018-Jun-20 19:59N 32°07' W 081°08'0 0.0
2018-Jun-20 19:26N 32°07' W 081°08'0 0.0
2018-Jun-20 18:59N 32°07' W 081°08'0 0.0
2018-Jun-20 18:26N 32°07' W 081°08'0 0.0
2018-Jun-20 17:53N 32°07' W 081°08'0 0.0
2018-Jun-20 17:23N 32°07' W 081°08'0 0.0
2018-Jun-20 16:59N 32°07' W 081°08'0 0.0
2018-Jun-20 16:29N 32°07' W 081°08'0 0.0
2018-Jun-20 15:53N 32°07' W 081°08'0 0.0
2018-Jun-20 15:29N 32°07' W 081°08'0 0.0
2018-Jun-20 14:56N 32°07' W 081°08'0 0.0
2018-Jun-20 14:29N 32°07' W 081°08'0 0.0
2018-Jun-20 13:47N 32°07' W 081°08'0 0.0
2018-Jun-20 13:26N 32°07' W 081°08'0 0.0
2018-Jun-20 12:59N 32°07' W 081°08'0 0.0
2018-Jun-20 12:29N 32°07' W 081°08'0 0.0
2018-Jun-20 09:17N 32°07' W 081°08'0 0.0
2018-Jun-20 08:47N 32°07' W 081°08'0 0.0
2018-Jun-20 08:29N 32°07' W 081°08'0 0.0
2018-Jun-20 07:53N 32°07' W 081°08'0 0.0
2018-Jun-20 05:44N 32°07' W 081°08'0 0.1
2018-Jun-20 05:29N 32°07' W 081°08'0 0.0
2018-Jun-20 04:50N 32°07' W 081°08'0 0.0
2018-Jun-20 03:53N 32°07' W 081°08'0 0.0
2018-Jun-20 03:23N 32°07' W 081°08'0 0.0
2018-Jun-20 02:59N 32°07' W 081°08'0 0.0
2018-Jun-20 02:29N 32°07' W 081°08'0 0.0
2018-Jun-19 19:11N 32°07' W 081°08'0 0.3
2018-Jun-19 19:00N 32°07' W 081°08'1 1.1
2018-Jun-19 18:30N 32°08' W 081°08'3 5.2
2018-Jun-19 17:59N 32°06' W 081°06'3 5.5
2018-Jun-19 17:30N 32°05' W 081°03'4 6.9
2018-Jun-19 16:59N 32°05' W 080°59'510.6
2018-Jun-19 16:30N 32°02' W 080°54'612.1
2018-Jun-19 16:00N 32°00' W 080°48'714.0
2018-Jun-19 15:30N 31°57' W 080°40'713.3
2018-Jun-19 14:59N 31°55' W 080°32'5 0.3
2018-Jun-19 01:16N 31°54' W 080°27'1 3.2
2018-Jun-19 01:00N 31°54' W 080°26'813.5
2018-Jun-19 00:26N 31°49' W 080°20'815.8
2018-Jun-18 23:54N 31°41' W 080°15'1416.0
2018-Jun-18 23:03N 31°29' W 080°09'416.0
2018-Jun-18 22:49N 31°25' W 080°08'  
2018-Jun-15 08:29N 09°36' W 079°47'917.9
2018-Jun-15 07:59N 09°29' W 079°51'612.9
2018-Jun-15 07:30N 09°23' W 079°54'1 2.6
2018-Jun-15 07:00N 09°22' W 079°53'0 0.0
2018-Jun-15 06:23N 09°22' W 079°53'0 0.0
2018-Jun-15 05:59N 09°22' W 079°53'0 0.0
2018-Jun-15 05:29N 09°22' W 079°53'0 0.0
2018-Jun-15 04:59N 09°22' W 079°53'0 0.0
2018-Jun-15 04:29N 09°22' W 079°53'0 0.0
2018-Jun-15 03:59N 09°22' W 079°53'0 0.0
2018-Jun-15 03:29N 09°22' W 079°53'0 0.0
2018-Jun-15 02:59N 09°22' W 079°53'0 0.0
2018-Jun-15 02:29N 09°22' W 079°53'0 0.0
2018-Jun-15 01:59N 09°22' W 079°53'0 0.1
2018-Jun-15 01:29N 09°22' W 079°53'0 0.1
2018-Jun-15 00:59N 09°22' W 079°53'0 0.0
2018-Jun-15 00:29N 09°22' W 079°53'0 0.0
2018-Jun-14 23:59N 09°22' W 079°53'0 0.0
2018-Jun-14 23:29N 09°22' W 079°53'0 0.0
2018-Jun-14 22:59N 09°22' W 079°53'0 0.0
2018-Jun-14 22:29N 09°22' W 079°53'0 0.0
2018-Jun-14 21:59N 09°22' W 079°53'0 0.0
2018-Jun-14 21:29N 09°22' W 079°53'0 0.1
2018-Jun-14 21:00N 09°22' W 079°53'1 1.6
2018-Jun-14 20:30N 09°22' W 079°54'2 4.0
2018-Jun-14 20:00N 09°24' W 079°55'4 8.2
2018-Jun-14 19:30N 09°20' W 079°55'3 5.7
2018-Jun-14 19:00N 09°17' W 079°55'1 1.2
2018-Jun-14 18:30N 09°16' W 079°55'0 0.5
2018-Jun-14 18:00N 09°16' W 079°55'0 0.4
2018-Jun-14 17:27N 09°16' W 079°55'0 0.1
2018-Jun-14 17:00N 09°16' W 079°55'1 1.1
2018-Jun-14 16:30N 09°15' W 079°55'1 2.7
2018-Jun-14 16:00N 09°14' W 079°55'  

Dump ship's entire track history